x

9440910 - Toke Point, Wa (tokw1) Weather Station

12:18 - Fri 25th Jul 2014 All times are PDT. -7 hours from GMT.

  • Wind
    3mph, 9mph gusts
  • Aire Temp 63°f
  • Sea Pressure 1021.2mb
  • 9440910 - Toke Point, Wa
  • 9440910 - Toke Point, Wa

More Historic Weather Station data

Upgrade to MSW Pro to gain access to the past 30 days of data for over 8000 Wavebouys and Weather Stations around the globe.

Join Pro

Comparision Forecast

View Surf forecast
   
vie 07/25 12:18 3 9 mph 1021.2mb 63f
12:12 5 9 mph 1021.2mb 63f
12:06 5 9 mph 1021.1mb 63f
12:00 3 8 mph 1021.1mb 63f
11:54 3 7 mph 1021.2mb 63f
11:48 1 3 mph 1021.2mb 64f
11:42  -  5 mph 1021.1mb 64f
11:36  -  7 mph 1021.2mb 64f
11:30 6 8 mph 1021.2mb 62f
11:24 6 7 mph 1021.2mb 62f
11:18 5 7 mph 1021.2mb 61f
11:12 5 8 mph 1021.2mb 61f
11:06 5 7 mph 1021.2mb 62f
11:00 5 7 mph 1021.2mb 62f
10:54 5 6 mph 1021.2mb 62f
10:48 2 7 mph 1021.2mb 62f
10:42 5 8 mph 1021.2mb 62f
10:36 3 6 mph 1021.2mb 62f
10:30 3 6 mph 1021.2mb 61f
10:24 3 6 mph 1021.2mb 61f
10:18 5 6 mph 1021.2mb 60f
10:12 3 6 mph 1021.2mb 60f
10:06 3 5 mph 1021.2mb 60f
10:00 3 5 mph 1021.2mb 60f
9:54 5 6 mph 1021.3mb 60f
9:48 5 6 mph 1021.3mb 59f
9:42 5 6 mph 1021.2mb 59f
9:36 6 7 mph 1021.2mb 59f
9:30 6 7 mph 1021.1mb 59f
9:24 7 8 mph 1021.2mb 58f
9:18 7 8 mph 1021.3mb 58f
9:12 7 8 mph 1021.3mb 58f
9:06 6
mph
1021.3mb 58f
9:00 5 6 mph 1021.4mb 58f
8:54 5 6 mph 1021.4mb 59f
8:48 3 5 mph 1021.4mb 59f
8:42  -  3 mph 1021.4mb 59f
8:36 2 3 mph 1021.4mb 58f
8:30 2
mph
1021.3mb 58f
8:24 1 2 mph 1021.4mb 58f
8:18 2 3 mph 1021.4mb 57f
8:12 2 3 mph 1021.4mb 56f
8:06 2 5 mph 1021.4mb 56f
8:00 3 5 mph 1021.4mb 56f
7:54 3 6 mph 1021.5mb 56f
7:48 5 6 mph 1021.5mb 56f
7:42 6
mph
1021.5mb 55f
7:36 5 6 mph 1021.5mb 56f
7:30 3 5 mph 1021.5mb 56f
7:24 5
mph
1021.5mb 55f
7:18 3 6 mph 1021.5mb 55f
7:12 5
mph
1021.5mb 55f
7:06 3 5 mph 1021.4mb 55f
7:00 3 6 mph 1021.5mb 55f
6:54 3 6 mph 1021.4mb 55f
6:48 5 6 mph 1021.4mb 55f
6:42 6
mph
1021.4mb 55f
6:36 6 7 mph 1021.5mb 55f
6:30 6 7 mph 1021.5mb 55f
6:24 6 7 mph 1021.5mb 55f
6:18 6 7 mph 1021.5mb 55f
6:12 6 7 mph 1021.5mb 55f
6:06 6 7 mph 1021.6mb 55f
6:00 6 7 mph 1021.6mb 55f
5:54 6
mph
1021.6mb 55f
5:48 5 7 mph 1021.5mb 55f
5:42 6 7 mph 1021.6mb 55f
5:36 6 8 mph 1021.6mb 56f
5:30 7 8 mph 1021.6mb 55f
5:24 7 8 mph 1021.6mb 56f
5:18 7 8 mph 1021.6mb 55f
5:12 7 8 mph 1021.6mb 55f
5:06 7 9 mph 1021.7mb 55f
5:00 7 9 mph 1021.7mb 55f
4:54 8 9 mph 1021.7mb 56f
4:48 8 9 mph 1021.6mb 55f
4:42 8 9 mph 1021.7mb 56f
4:36 8 9 mph 1021.7mb 56f
4:30 7 9 mph 1021.8mb 56f
4:24 8 9 mph 1021.7mb 56f
4:18 7 9 mph 1021.7mb 56f
4:12 7 9 mph 1021.8mb 56f
4:06 8 9 mph 1021.8mb 56f
4:00 8 10 mph 1021.8mb 56f
3:54 8 10 mph 1021.9mb 56f
3:48 8 9 mph 1021.9mb 56f
3:42 8 9 mph 1022mb 56f
3:36 9
mph
1022mb 56f
3:30 9
mph
1022.1mb 56f
3:24 8 10 mph 1022.1mb 56f
3:18 9 10 mph 1022.2mb 56f
3:12 7 8 mph 1022.2mb 56f
3:06 7 8 mph 1022.3mb 56f
3:00 7 8 mph 1022.3mb 56f
2:54 8 9 mph 1022.3mb 56f
2:48 8 9 mph 1022.3mb 56f
2:42 8 9 mph 1022.3mb 56f
2:36 9
mph
1022.3mb 56f
2:30 9 10 mph 1022.4mb 56f
2:24 8 9 mph 1022.4mb 56f
2:18 7 8 mph 1022.4mb 57f
2:12 6 7 mph 1022.4mb 57f
2:06 5
mph
1022.4mb 57f
2:00 3 5 mph 1022.4mb 58f
1:54 3
mph
1022.5mb 57f
1:48 3 5 mph 1022.5mb 57f
1:42 5 6 mph 1022.5mb 57f
1:36 5 6 mph 1022.6mb 57f
1:30 6
mph
1022.7mb 57f
1:24 6 7 mph 1022.7mb 57f
1:18 6 7 mph 1022.8mb 57f
1:12 6 7 mph 1022.8mb 57f
1:06 6 7 mph 1022.8mb 58f
1:00 6 7 mph 1022.9mb 58f
12:54 6 7 mph 1022.9mb 58f
12:48 6 7 mph 1023mb 58f
12:42 5 6 mph 1023mb 58f
12:36 6 7 mph 1023.1mb 58f
12:30 6 7 mph 1023.1mb 58f
12:24 3 5 mph 1023.1mb 59f
12:18 5 6 mph 1023mb 59f
12:12 3 6 mph 1023mb 59f
12:06 2 5 mph 1023.1mb 59f
12:00 2 3 mph 1023.1mb 59f
jue 07/24 11:54  -  2 mph 1023.1mb 59f
11:48  -  1 mph 1023.2mb 59f
11:42 1 2 mph 1023.2mb 59f
11:36 2
mph
1023.2mb 59f
11:30 2 3 mph 1023.3mb 59f
11:24 2 3 mph 1023.3mb 59f
11:18 2 3 mph 1023.3mb 59f
11:12 2 3 mph 1023.3mb 59f
11:06 2 3 mph 1023.3mb 59f
11:00 3
mph
1023.4mb 59f
10:54 3
mph
1023.4mb 59f
10:48 3
mph
1023.5mb 59f
10:42 3
mph
1023.4mb 59f
10:36 3 5 mph 1023.5mb 60f
10:30 3 5 mph 1023.5mb 60f
10:24 3 5 mph 1023.5mb 60f
10:18 3 5 mph 1023.5mb 60f
10:12 3 5 mph 1023.6mb 60f
10:06 3 5 mph 1023.6mb 60f
10:00 3 5 mph 1023.6mb 60f
9:54 3 6 mph 1023.7mb 60f
9:48 3 5 mph 1023.7mb 60f
9:42 5 6 mph 1023.8mb 60f
9:36 3 5 mph 1023.7mb 60f
9:30 5
mph
1023.7mb 60f
9:24 5
mph
1023.7mb 60f
9:18 5
mph
1023.7mb 60f
9:12 5 6 mph 1023.7mb 60f
9:06 5 7 mph 1023.7mb 60f
9:00 6 7 mph 1023.7mb 60f
8:54 7 8 mph 1023.6mb 60f
8:48 6 8 mph 1023.6mb 60f
8:42 6 8 mph 1023.6mb 60f
8:36 6 7 mph 1023.6mb 60f
8:30 7 8 mph 1023.6mb 60f
8:24 6 7 mph 1023.6mb 60f
8:18 6 7 mph 1023.7mb 60f
8:12 6 8 mph 1023.6mb 60f
8:06 7 8 mph 1023.7mb 60f
8:00 8 10 mph 1023.8mb 60f
7:54 9 10 mph 1023.8mb 60f
7:48 9 11 mph 1023.7mb 60f
7:42 9 11 mph 1023.7mb 61f
7:36 9 14 mph 1023.8mb 61f
7:30 10 14 mph 1023.7mb 62f
7:24 9 13 mph 1023.7mb 62f
7:18 8 11 mph 1023.7mb 62f
7:12 9 14 mph 1023.7mb 62f
7:06 10 15 mph 1023.8mb 62f
7:00 10 14 mph 1023.8mb 62f
6:54 10 14 mph 1023.8mb 62f
6:48 8 11 mph 1023.9mb 62f
6:42 9 11 mph 1023.9mb 62f
6:36 8 11 mph 1023.9mb 62f
6:30 9 13 mph 1023.9mb 63f
6:24 7 8 mph 1024mb 62f
6:18 7 8 mph 1024.1mb 62f
6:12 6 9 mph 1024mb 62f
6:06 7 8 mph 1024.1mb 62f
6:00 7 8 mph 1024.2mb 62f
5:54 8 14 mph 1024.3mb 62f
5:48 9 14 mph 1024.3mb 62f
5:42 9 13 mph 1024.3mb 62f
5:36 10 14 mph 1024.3mb 62f
5:30 8 11 mph 1024.3mb 62f
5:24 10 13 mph 1024.4mb 61f
5:18 9 11 mph 1024.5mb 61f
5:12 8 13 mph 1024.5mb 61f
5:06 11 14 mph 1024.6mb 61f
5:00 10 15 mph 1024.6mb 61f
4:54 10 16 mph 1024.6mb 61f
4:48 11 15 mph 1024.7mb 61f
4:42 8 14 mph 1024.7mb 61f
4:36 11 14 mph 1024.7mb 61f
4:30 9 11 mph 1024.7mb 62f
4:24 8 11 mph 1024.7mb 62f
4:18 8 10 mph 1024.8mb 62f
4:12 8 10 mph 1024.8mb 62f
4:06 8 14 mph 1024.8mb 62f
4:00 10 14 mph 1024.9mb 62f
3:54 13 16 mph 1024.9mb 62f
3:48 11 17 mph 1024.9mb 62f
3:42 13 17 mph 1024.9mb 62f
3:36 11 17 mph 1024.9mb 62f
3:30 10 16 mph 1024.8mb 63f
3:24 13 17 mph 1024.9mb 63f
3:18 11 17 mph 1024.9mb 63f
3:12 14 17 mph 1024.9mb 63f
3:06 11 17 mph 1024.9mb 63f
3:00 14 16 mph 1025mb 63f
2:54 10 15 mph 1025mb 63f
2:48 13 15 mph 1025mb 62f
2:42 13 16 mph 1025.1mb 62f
2:36 13 15 mph 1025mb 62f
2:30 14 17 mph 1025mb 62f
2:24 11 16 mph 1025mb 62f
2:18 13 15 mph 1025mb 62f
2:12 11 14 mph 1025mb 62f
2:06 13 16 mph 1025mb 62f
2:00 10 15 mph 1024.9mb 62f
1:54 13 15 mph 1024.9mb 62f
1:48 13 17 mph 1024.9mb 62f
1:42 14 17 mph 1024.8mb 61f
1:36 15 18 mph 1024.8mb 61f
1:30 17 20 mph 1024.8mb 61f
1:24 14 17 mph 1024.8mb 61f
1:18 11 15 mph 1024.7mb 61f
1:12 10 15 mph 1024.7mb 61f
1:06 8 14 mph 1024.7mb 61f
1:00 10 14 mph 1024.7mb 60f
12:54 9 14 mph 1024.6mb 60f
12:48 10 15 mph 1024.6mb 61f
12:42 10 14 mph 1024.6mb 61f
12:36 10 16 mph 1024.5mb 61f
12:30 10 14 mph 1024.5mb 61f
12:24 9 14 mph 1024.5mb 61f
12:18 10 18 mph 1024.4mb 62f
12:12 16 20 mph 1024.3mb 62f
12:06 13 23 mph 1024.3mb 62f
12:00 17 20 mph 1024.2mb 62f
11:54 14 17 mph 1024.2mb 62f
11:48 13 16 mph 1024.1mb 62f
11:42 13 17 mph 1024.1mb 62f
11:36 9 15 mph 1024mb 62f
11:30 11 17 mph 1024mb 61f
11:24 11 16 mph 1024mb 61f
11:18 10 14 mph 1023.9mb 61f
11:12 9 13 mph 1023.9mb 61f
11:06 10 14 mph 1023.8mb 61f
11:00 9 14 mph 1023.8mb 60f
10:54 13 17 mph 1023.7mb 60f
10:48 11 15 mph 1023.7mb 60f
10:42 11 14 mph 1023.6mb 61f
10:36 14 20 mph 1023.6mb 61f
10:30 11 16 mph 1023.5mb 61f
10:24 15 20 mph 1023.4mb 61f
10:18 13 16 mph 1023.3mb 61f
10:12 10 21 mph 1023.3mb 61f
10:06 16 18 mph 1023.1mb 61f
10:00 15 20 mph 1023.1mb 60f
9:54 15 21 mph 1023mb 60f
9:48 16 20 mph 1023mb 60f
9:42 15 18 mph 1022.8mb 60f
9:36 18 21 mph 1022.7mb 61f
9:30 13 16 mph 1022.6mb 61f
9:24 9 14 mph 1022.6mb 61f
9:18 11 20 mph 1022.5mb 60f
9:12 16 18 mph 1022.5mb 60f
9:06 14 20 mph 1022.4mb 60f
9:00 11 18 mph 1022.4mb 61f
8:54 11 18 mph 1022.3mb 61f
8:48 14 16 mph 1022.1mb 60f
8:42 14 18 mph 1022mb 60f
8:36 13 16 mph 1021.9mb 60f
8:30 15 21 mph 1021.8mb 60f
8:24 15 18 mph 1021.7mb 60f
8:18 14 18 mph 1021.5mb 60f
8:12 14 17 mph 1021.4mb 60f
8:06 13 14 mph 1021.3mb 60f
8:00 9 11 mph 1021.2mb 60f
7:54 10 13 mph 1021.1mb 60f
7:48 8 11 mph 1021mb 61f
7:42 9 13 mph 1020.9mb 60f
7:36 8 11 mph 1020.8mb 60f
7:30 7 9 mph 1020.7mb 60f
7:24 6 8 mph 1020.6mb 60f
7:18 5 6 mph 1020.5mb 60f
7:12 3 6 mph 1020.4mb 59f
7:06 3 6 mph 1020.2mb 59f
7:00 5 7 mph 1020mb 59f
6:54 6 7 mph 1019.8mb 59f
6:48 7 8 mph 1019.7mb 59f
6:42 6 8 mph 1019.6mb 59f
6:36 7 8 mph 1019.6mb 59f
6:30 3 6 mph 1019.4mb 58f
6:24 6 11 mph 1019.3mb 58f
6:18 9 11 mph 1019.2mb 59f
6:12 8 13 mph 1019.1mb 59f
6:06 7 11 mph 1019mb 60f
6:00 6 11 mph 1019mb 60f
5:54 8 13 mph 1018.9mb 60f
5:48 8 13 mph 1018.8mb 60f
5:42 7 11 mph 1018.6mb 60f
5:36 8 13 mph 1018.5mb 60f
5:30 9 13 mph 1018.5mb 60f
5:24 8 13 mph 1018.4mb 60f
5:18 6 10 mph 1018.2mb 60f
5:12 6 13 mph 1018.1mb 60f
5:06 9 14 mph 1018mb 60f
5:00 6 13 mph 1018mb 60f
4:54 2 6 mph 1017.9mb 60f
4:48 2 6 mph 1017.8mb 60f
4:42 2 6 mph 1017.7mb 60f
4:36 2 7 mph 1017.6mb 60f
4:30 2 9 mph 1017.5mb 60f
4:24 5 15 mph 1017.4mb 60f
4:18 7 15 mph 1017.3mb 60f
4:12 7 16 mph 1017.3mb 60f
4:06 9 15 mph 1017.2mb 60f
4:00 10 16 mph 1017mb 60f
3:54 11 16 mph 1016.9mb 60f
3:48 10 17 mph 1016.9mb 60f
3:42 14 18 mph 1016.7mb 60f
3:36 15 21 mph 1016.7mb 60f
3:30 16 20 mph 1016.5mb 60f
3:24 16 22 mph 1016.5mb 59f
3:18 16 22 mph 1016.4mb 59f
3:12 21 25 mph 1016.4mb 60f
3:06 21 25 mph 1016.3mb 60f
3:00 21 25 mph 1016.3mb 59f
2:54 22 26 mph 1016.3mb 59f
2:48 23 29 mph 1016.4mb 60f
2:42 25 29 mph 1016.4mb 60f
2:36 22 29 mph 1016.4mb 60f
2:30 22 28 mph 1016.3mb 60f
2:24 22 26 mph 1016.3mb 60f
2:18 22 26 mph 1016.4mb 60f
2:12 23 28 mph 1016.5mb 60f
2:06 21 25 mph 1016.4mb 60f
2:00 21 25 mph 1016.5mb 60f
1:54 22 28 mph 1016.5mb 60f
1:48 23 26 mph 1016.5mb 60f
1:42 21 25 mph 1016.6mb 59f
1:36 20 25 mph 1016.6mb 60f
1:30 21 29 mph 1016.6mb 59f
1:24 24 29 mph 1016.5mb 59f
1:18 22 26 mph 1016.6mb 59f
1:12 22 26 mph 1016.6mb 59f
1:06 23 29 mph 1016.6mb 59f
1:00 24 29 mph 1016.7mb 58f
12:54 24 32 mph 1016.7mb 58f
12:48 26 30 mph 1016.6mb 58f
12:42 25 29 mph 1016.6mb 58f
12:36 21 28 mph 1016.7mb 58f
12:30 23 30 mph 1016.7mb 58f
12:24 24 32 mph 1016.5mb 59f
12:18 22 28 mph 1016.5mb 58f
12:12 20 28 mph 1016.6mb 59f
12:06 21 28 mph 1016.5mb 59f
12:00 22 29 mph 1016.5mb 58f
mié 07/23 11:54 24 30 mph 1016.7mb 59f
11:48 22 31 mph 1016.6mb 59f
11:42 24 30 mph 1016.5mb 59f
11:36 24 31 mph 1016.5mb 59f
11:30 26 32 mph 1016.5mb 59f
11:24 24 29 mph 1016.5mb 59f
11:18 25 31 mph 1016.6mb 58f
11:12 25 30 mph 1016.6mb 58f
11:06 22 29 mph 1016.8mb 58f
11:00 22 29 mph 1016.8mb 59f
10:54 21 29 mph 1016.9mb 59f
10:48 20 25 mph 1016.9mb 59f
10:42 18 25 mph 1016.9mb 59f
10:36 22 26 mph 1017mb 59f
10:30 21 25 mph 1017.1mb 59f
10:24 17 22 mph 1017.1mb 58f
10:18 17 25 mph 1017.2mb 57f
10:12 21 28 mph 1017.2mb 58f
10:06 18 25 mph 1017.2mb 58f
10:00 17 26 mph 1017.2mb 58f
9:54 22 29 mph 1017.3mb 58f
9:48 21 26 mph 1017.3mb 58f
9:42 20 25 mph 1017.3mb 57f
9:36 20 25 mph 1017.3mb 57f
9:30 21 25 mph 1017.3mb 58f
9:24 16 26 mph 1017.3mb 58f
9:18 16 23 mph 1017.3mb -
9:12 17 21 mph 1017.2mb -
9:06 17 21 mph 1017.2mb -
9:00 16 20 mph 1017.1mb 58f
8:54 13 17 mph 1017.1mb 58f
8:48 14 17 mph 1017.1mb 58f
8:42 11 15 mph 1017.2mb 58f
8:36 13 15 mph 1017.3mb 58f
8:30 13 16 mph 1017.3mb 58f
8:24 10 17 mph 1017.4mb 58f
8:18 13 16 mph 1017.4mb 58f
8:12 10 15 mph 1017.5mb 58f
8:06 9 17 mph 1017.5mb 58f
8:00 6 10 mph 1017.5mb 58f
7:54 5 17 mph 1017.5mb 58f
7:48 9 21 mph 1017.5mb 58f
7:42 14 22 mph 1017.5mb 58f
7:36 10 20 mph 1017.5mb 59f
7:30 15 21 mph 1017.5mb 60f
7:24 15 25 mph 1017.5mb 61f
7:18 16 21 mph 1017.4mb 61f
7:12 18 24 mph 1017.4mb 62f
7:06 16 24 mph 1017.5mb 62f
7:00 17 22 mph 1017.4mb 62f
6:54 20 25 mph 1017.5mb 62f
6:48 20 25 mph 1017.5mb 62f
6:42 17 23 mph 1017.5mb 62f
6:36 18 22 mph 1017.6mb 62f
6:30 21 24 mph 1017.7mb 62f
6:24 15 22 mph 1017.8mb 62f
6:18 16 22 mph 1017.8mb 62f
6:12 18 25 mph 1017.8mb 63f
6:06 16 23 mph 1017.8mb 63f
6:00 17 23 mph 1017.9mb 63f
5:54 17 22 mph 1017.9mb 63f
5:48 16 24 mph 1017.8mb 63f
5:42 17 21 mph 1017.8mb 63f
5:36 11 20 mph 1017.8mb 63f
5:30 10 18 mph 1017.8mb 64f
5:24 9 18 mph 1017.8mb 63f
5:18 10 18 mph 1017.8mb 64f
5:12 11 20 mph 1017.9mb 64f
5:06 14 17 mph 1017.9mb 63f
5:00 9 18 mph 1017.9mb 63f
4:54 10 21 mph 1018mb 63f
4:48 14 18 mph 1018mb 63f
4:42 13 18 mph 1017.9mb 64f
4:36 7 16 mph 1017.9mb 64f
4:30 10 18 mph 1018mb 64f
4:24 10 16 mph 1018mb 64f
4:18 5 13 mph 1018.1mb 65f
4:12 8 14 mph 1018.1mb 64f
4:06 2 10 mph 1018.2mb 66f
4:00 3 14 mph 1018.2mb 65f
3:54 6 15 mph 1018.2mb 65f
3:48 1 6 mph 1018.2mb 66f
3:42 2 13 mph 1018.2mb 66f
3:36 5 15 mph 1018.2mb 65f
3:30 6 13 mph 1018.2mb 65f
3:24 3 14 mph 1018.3mb 66f
3:18 8 20 mph 1018.3mb 65f
3:12 8 14 mph 1018.2mb 64f
3:06 7 15 mph 1018.2mb 64f
3:00 10 16 mph 1018.2mb 64f
2:54 8 16 mph 1018.1mb 64f
2:48 2 6 mph 1018.1mb 64f
2:42 2 7 mph 1018mb 64f
2:36 1 7 mph 1018mb 64f
2:30 2 9 mph 1018mb 64f
2:24 1 10 mph 1018.1mb 65f
2:18 5 13 mph 1018mb 64f
2:12 5 14 mph 1017.9mb 64f
2:06 6 13 mph 1017.9mb 65f
2:00 5 15 mph 1017.8mb 65f
1:54 8 14 mph 1017.8mb 64f
1:48 6 11 mph 1017.8mb 64f
1:42 3 10 mph 1017.7mb 65f
1:36 7 14 mph 1017.6mb 64f
1:30 3 8 mph 1017.5mb 64f
1:24 2 9 mph 1017.5mb 64f
1:18 5 9 mph 1017.4mb 63f
1:12 6 10 mph 1017.3mb 63f
1:06 2 10 mph 1017.3mb 64f
1:00 5 11 mph 1017.2mb 63f
12:54 5 9 mph 1017.2mb 62f
12:48 6 10 mph 1017.2mb 62f
12:42 7 13 mph 1017.4mb 62f
12:36 6 9 mph 1017.3mb 61f
12:30 3 9 mph 1017.1mb 61f
12:24 3 8 mph 1016.9mb 61f
12:18 5 10 mph 1017.1mb 61f
12:12 5 10 mph 1017.2mb 61f
12:06 5 10 mph 1017.2mb 61f
12:00 3 7 mph 1017.2mb 62f
11:54 1 3 mph 1017.1mb 62f
11:48 1 3 mph 1017mb 62f
11:42 2 6 mph 1016.8mb 62f
11:36 2 7 mph 1016.8mb 62f
11:30 2 7 mph 1016.8mb 62f
11:24 2 8 mph 1016.8mb 61f
11:18 3 8 mph 1016.8mb 61f
11:12 2 7 mph 1016.8mb 61f
11:06 5 8 mph 1016.8mb 61f
11:00 1 7 mph 1016.8mb 61f
10:54 2 6 mph 1016.8mb 61f
10:48 1 5 mph 1016.6mb 61f
10:42 1 5 mph 1016.5mb 62f
10:36 2 6 mph 1016.4mb 62f
10:30 1 11 mph 1016.3mb 61f
10:24 6 11 mph 1016.5mb 61f
10:18 6 10 mph 1016.7mb 61f
10:12 5 10 mph 1016.6mb 61f
10:06 6 9 mph 1016.5mb 61f
10:00  -  7 mph 1016.3mb 61f
9:54 5 9 mph 1016.2mb 61f
9:48 8 11 mph 1016.2mb 60f
9:42 6 13 mph 1016.2mb 60f
9:36 8 13 mph 1016.1mb 60f
9:30 8 11 mph 1016.2mb 60f
9:24 8 13 mph 1016.3mb 60f
9:18 9 13 mph 1016.3mb 60f
9:12 9 14 mph 1016.2mb 60f
9:06 10 14 mph 1016.2mb 60f
9:00 9 14 mph 1016.3mb 60f
8:54 8 10 mph 1016.2mb 60f
8:48 7 9 mph 1016.1mb 60f
8:42 6 10 mph 1016mb 59f
8:36 9 13 mph 1016.1mb 59f
8:30 10 13 mph 1016.2mb 59f
8:24 7 10 mph 1016.1mb 59f
8:18 8 11 mph 1016mb 59f
8:12 6 9 mph 1016mb 59f
8:06 6 11 mph 1015.8mb 59f
8:00 3 9 mph 1015.8mb 59f
7:54 8 13 mph 1015.9mb 59f
7:48 9 13 mph 1015.9mb 59f
7:42 5 13 mph 1015.7mb 59f
7:36 2 14 mph 1015.6mb 59f
7:30 8 23 mph 1015.6mb 59f
7:24 21 29 mph 1015.3mb 60f
7:18 28 32 mph 1015mb 59f
7:12 23 28 mph 1015.1mb 60f
7:06 20 23 mph 1015.2mb 60f
7:00 13 15 mph 1015.3mb 59f
6:54 11 14 mph 1015.3mb 59f
6:48 10 13 mph 1015.3mb 59f
6:42 10 11 mph 1015.2mb 59f
6:36 10 11 mph 1015.2mb 59f
6:30 9 13 mph 1015.2mb 59f
6:24 10 13 mph 1015.1mb 59f
6:18 11 14 mph 1015.1mb 59f
6:12 13 15 mph 1015.1mb 59f
6:06 11 13 mph 1015.1mb 60f
6:00 9 13 mph 1015.1mb 59f
5:54 9 11 mph 1015.1mb 59f
5:48 10 13 mph 1015.1mb 59f
5:42 10 14 mph 1015mb 59f
5:36 10 13 mph 1015.1mb 60f
5:30 9 13 mph 1015mb 60f
5:24 10 13 mph 1015mb 60f
5:18 9 11 mph 1015mb 60f
5:12 9 13 mph 1015.1mb 60f
5:06 9 11 mph 1015.2mb 60f
5:00 8 10 mph 1015mb 60f
4:54 9 13 mph 1015.1mb 60f
4:48 11 14 mph 1015.1mb 60f
4:42 13 16 mph 1015.1mb 60f
4:36 13 16 mph 1015.3mb 60f
4:30 14 18 mph 1015.2mb 60f
4:24 15 18 mph 1015.2mb 60f
4:18 14 18 mph 1015.1mb 60f
4:12 15 18 mph 1014.9mb 60f
4:06 13 18 mph 1015.2mb 60f
4:00 15 20 mph 1015.3mb 61f
3:54 11 14 mph 1015.2mb 61f
3:48 9 14 mph 1015.2mb 61f
3:42 10 14 mph 1015.2mb 61f
3:36 8 13 mph 1015.2mb 61f
3:30 13 17 mph 1015.4mb 61f
3:24 15 17 mph 1015.4mb 61f
3:18 13 17 mph 1015.5mb 61f
3:12 13 16 mph 1015mb 62f
3:06 14 17 mph 1015.2mb 62f
3:00 15 17 mph 1015.6mb 62f
2:54 13 15 mph 1015.7mb 62f
2:48 11 15 mph 1015.7mb 62f
2:42 11 16 mph 1015.7mb 62f
2:36 13 17 mph 1015.7mb 62f
2:30 14 17 mph 1015.8mb 62f
2:24 13 15 mph 1015.8mb 62f
2:18 14 15 mph 1015.8mb 62f
2:12 11 14 mph 1015.7mb 62f
2:06 9 13 mph 1015.8mb 62f
2:00 10 13 mph 1015.9mb 62f
1:54 9 14 mph 1015.8mb 62f
1:48 9 10 mph 1015.9mb 62f
1:42 7 11 mph 1015.9mb 62f
1:36 8 9 mph 1015.9mb 62f
1:30 6 8 mph 1015.9mb 62f
1:24 6 9 mph 1016mb 62f
1:18 5 7 mph 1016mb 62f
1:12 3 6 mph 1016.1mb 61f
1:06 5 7 mph 1016.1mb 61f
1:00 3 6 mph 1016.2mb 61f
12:54 1 3 mph 1016.2mb 61f
12:48  -  5 mph 1016.2mb 61f
12:42 1 5 mph 1016.2mb 61f
12:36  -  2 mph 1016.1mb 61f
12:30 1 5 mph 1016.2mb 61f
12:24 3 5 mph 1016.3mb 61f
12:18 2 3 mph 1016.2mb 61f
12:12 2 6 mph 1016.2mb 62f
12:06 5 6 mph 1016.2mb 62f
12:00 5 6 mph 1016.2mb 62f
mar 07/22 11:54 6 7 mph 1016.2mb 61f
11:48 5 6 mph 1016.2mb 61f
11:42 6 7 mph 1016.2mb 62f
11:36 6 8 mph 1016.3mb 62f
11:30 8 9 mph 1016.4mb 62f
11:24 9
mph
1016.2mb 62f
11:18 8
mph
1016.2mb 62f
11:12 5 7 mph 1016.2mb 61f
11:06 5 6 mph 1016.1mb 62f
11:00 5 6 mph 1016.1mb 62f
10:54 2 5 mph 1016.1mb 62f
10:48 3 5 mph 1016.2mb 62f
10:42 5
mph
1016.3mb 62f
10:36 5
mph
1016.2mb 62f
10:30 3 5 mph 1016.1mb 62f
10:24 3 5 mph 1016.2mb 63f
10:18 5
mph
1016.2mb 63f
10:12 3 5 mph 1016.2mb 63f
10:06 3 6 mph 1016.2mb 63f
10:00 6 7 mph 1016.3mb 62f
9:54 6
mph
1016.3mb 62f
9:48 5 6 mph 1016.4mb 62f
9:42 6 7 mph 1016.4mb 62f
9:36 6 7 mph 1016.3mb 63f
9:30 6 7 mph 1016.3mb 63f
9:24 8 9 mph 1016.3mb 63f
9:18 7 8 mph 1016.5mb 63f
9:12 7 8 mph 1016.4mb 63f
9:06 9
mph
1016.1mb 63f
9:00 7 9 mph 1016.2mb 63f
8:54 6 7 mph 1016.3mb 63f
8:48 7 8 mph 1016.4mb 63f
8:42 7 8 mph 1016.4mb 64f
8:36 7
mph
1016.3mb 64f
8:30 7 8 mph 1016.3mb 64f
8:24 7 8 mph 1016.1mb 64f
8:18 8 10 mph 1016.2mb 64f
8:12 9
mph
1016.1mb 65f
8:06 8 9 mph 1016.1mb 65f
8:00 7 8 mph 1016.1mb 65f
7:54 6 8 mph 1016mb 66f
7:48 8 9 mph 1016mb 66f
7:42 8
mph
1015.9mb 67f
7:36 8 9 mph 1016mb 67f
7:30 7 9 mph 1016mb 67f
7:24 9
mph
1016mb 67f
7:18 9 10 mph 1016mb 67f
7:12 6 8 mph 1016.1mb 68f
7:06 7 9 mph 1016mb 68f
7:00 8 10 mph 1016.1mb 68f
6:54 8 10 mph 1016mb 68f
6:48 9 10 mph 1016.1mb 68f
6:42 8 9 mph 1016.1mb 68f
6:36 8 10 mph 1016mb 68f
6:30 6 10 mph 1016.1mb 68f
6:24 8 10 mph 1016.1mb 68f
6:18 8 9 mph 1016.2mb 68f
6:12 7 9 mph 1016.2mb 69f
6:06 8 10 mph 1016.2mb 68f
6:00 7 9 mph 1016.3mb 69f
5:54 8 9 mph 1016.3mb 68f
5:48 8 10 mph 1016.4mb 69f
5:42 9 11 mph 1016.4mb 68f
5:36 8 10 mph 1016.5mb 68f
5:30 8 10 mph 1016.5mb 68f
5:24 8 11 mph 1016.6mb 68f
5:18 9 11 mph 1016.7mb 68f
5:12 8 10 mph 1016.8mb 68f
5:06 7 10 mph 1016.8mb 69f
5:00 8 11 mph 1016.8mb 68f
4:54 9 11 mph 1016.9mb 68f
4:48 9 10 mph 1017mb 67f
4:42 8 11 mph 1017mb 67f
4:36 10 13 mph 1017.1mb 67f
4:30 9 13 mph 1017.2mb 67f
4:24 10 13 mph 1017.3mb 66f
4:18 8 13 mph 1017.4mb 67f
4:12 8 13 mph 1017.4mb 67f
4:06 5 10 mph 1017.5mb 67f
4:00 6 9 mph 1017.5mb 67f
3:54 6 9 mph 1017.5mb 67f
3:48 9 11 mph 1017.6mb 66f
3:42 9 13 mph 1017.7mb 66f
3:36 10 13 mph 1017.7mb 66f
3:30 9 13 mph 1017.7mb 66f
3:24 7 13 mph 1017.7mb 66f
3:18 8 13 mph 1017.7mb 66f
3:12 8 11 mph 1017.7mb 66f
3:06 8 11 mph 1017.8mb 66f
3:00 9 13 mph 1017.9mb 65f
2:54 9 11 mph 1017.9mb 65f
2:48 9 11 mph 1017.9mb 66f
2:42 7 10 mph 1018mb 66f
2:36 7 9 mph 1018.1mb 66f
2:30 6 9 mph 1018.1mb 66f
2:24 8 10 mph 1018.1mb 65f
2:18 8 11 mph 1018.2mb 65f
2:12 9 11 mph 1018.2mb 65f
2:06 2 8 mph 1018.2mb 66f
2:00 2 9 mph 1018.2mb 66f
1:54 7 8 mph 1018.1mb 66f
1:48 2 7 mph 1018.1mb 66f
1:42 2 6 mph 1018.1mb 66f
1:36 2 7 mph 1018.1mb 66f
1:30 6 7 mph 1018.1mb 65f
1:24 6 7 mph 1018.1mb 65f
1:18 6
mph
1018mb 65f
1:12 5 6 mph 1017.9mb 64f
1:06 5
mph
1017.9mb 64f
1:00 3
mph
1017.9mb 64f
12:54 2
mph
1018mb 64f
12:48 1 2 mph 1018mb 64f
12:42 2
mph
1018mb 63f
12:36 2
mph
1018mb 62f
12:30 2 3 mph 1018mb 63f
12:24 2 3 mph 1018mb 62f
12:18 2
mph
1018mb 63f
12:12 2
mph
1018.1mb 63f
12:06 2
mph
1018.1mb 63f
12:00 2
mph
1018.1mb 63f
11:54 2 3 mph 1018.1mb 62f
11:48 2 3 mph 1018.2mb 61f
11:42 2 3 mph 1018.1mb 61f
11:36 3 5 mph 1018.2mb 61f
11:30 3 5 mph 1018.2mb 60f
11:24 3 5 mph 1018.1mb 60f
11:18 5 6 mph 1018.1mb 60f
11:12 6
mph
1018.1mb 60f
11:06 6
mph
1018.1mb 60f
11:00 6
mph
1018.1mb 60f
10:54 6
mph
1018mb 60f
10:48 5 6 mph 1018mb 59f
10:42 6
mph
1017.9mb 59f
10:36 5 6 mph 1017.9mb 59f
10:30 5 6 mph 1017.9mb 59f
10:24 5 6 mph 1017.9mb 59f
10:18 6
mph
1017.9mb 58f
10:12 6 7 mph 1017.8mb 58f
10:06 6 7 mph 1017.8mb 58f
10:00 6 8 mph 1017.8mb 58f
9:54 7 8 mph 1017.8mb 58f
9:48 7 8 mph 1017.7mb 58f
9:42 6 7 mph 1017.7mb 58f
9:36 6 7 mph 1017.7mb 58f
9:30 6 7 mph 1017.7mb 57f
9:24 7
mph
1017.8mb 57f
9:18 7 8 mph 1017.8mb 57f
9:12 7 8 mph 1017.8mb 57f
9:06 7 8 mph 1017.8mb 57f
9:00 7 8 mph 1017.8mb 57f
8:54 7 8 mph 1017.9mb 57f
8:48 7 9 mph 1017.9mb 56f
8:42 7 8 mph 1017.9mb 56f
8:36 7 8 mph 1017.8mb 56f
8:30 6 7 mph 1017.8mb 56f
8:24 6 7 mph 1017.8mb 56f
8:18 6 7 mph 1017.7mb 56f
8:12 6 7 mph 1017.7mb 55f
8:06 6 7 mph 1017.6mb 55f
8:00 6 7 mph 1017.5mb 55f
7:54 7 8 mph 1017.4mb 55f
7:48 7 8 mph 1017.3mb 54f
7:42 7 8 mph 1017.3mb 54f
7:36 7 8 mph 1017.2mb 54f
7:30 7 8 mph 1017.2mb 54f
7:24 8 9 mph 1017.1mb 54f
7:18 8
mph
1017.1mb 54f
7:12 7 8 mph 1017.1mb 54f
7:06 7 8 mph 1017.1mb 54f
7:00 7 8 mph 1017.1mb 54f
6:54 7 8 mph 1017mb 54f
6:48 7
mph
1017.1mb 54f
6:42 7 8 mph 1017mb 54f
6:36 6 7 mph 1017mb 54f
6:30 6 7 mph 1017mb 54f
6:24 6
mph
1016.9mb 54f
6:18 5 6 mph 1016.9mb 54f
6:12 5 6 mph 1017mb 54f
6:06 2 3 mph 1017mb 53f
6:00 2 6 mph 1017mb 53f
5:54 3 6 mph 1017mb 54f
5:48 5 6 mph 1017mb 54f
5:42 5 6 mph 1017mb 54f
5:36 5 6 mph 1017mb 54f
5:30 6
mph
1017mb 54f
5:24 6 7 mph 1017.1mb 54f
5:18 5 6 mph 1017.1mb 55f
5:12 5
mph
1017.1mb 55f
5:06 3 6 mph 1017.2mb 55f
5:00 5 7 mph 1017.1mb 55f
4:54 6
mph
1017mb 55f
4:48 6
mph
1017mb 54f
4:42 6
mph
1017.1mb 55f
4:36 6 7 mph 1017.1mb 55f
4:30 6
mph
1017.2mb 55f
4:24 5 6 mph 1017.2mb 55f
4:18 5 6 mph 1017.2mb 55f
4:12 5 6 mph 1017.3mb 55f
4:06 5 6 mph 1017.3mb 55f
4:00 6
mph
1017.3mb 55f
3:54 2 3 mph 1017.3mb 54f
3:48 3 5 mph 1017.4mb 54f
3:42 3 5 mph 1017.3mb 54f
3:36 3 5 mph 1017.4mb 54f
3:30 5 6 mph 1017.3mb 54f
3:24 3 5 mph 1017.2mb 55f
3:18 2 3 mph 1017.2mb 55f
3:12 3 5 mph 1017.2mb 55f
3:06 3
mph
1017.2mb 55f
3:00 2 3 mph 1017.2mb 55f
2:54 3 5 mph 1017.1mb 55f
2:48 3 5 mph 1017.1mb 55f
2:42 3 5 mph 1017.1mb 55f
2:36 3 5 mph 1017.1mb 55f
2:30 3 5 mph 1017.1mb 55f
2:24 5 6 mph 1017.1mb 55f
2:18 5 6 mph 1017.1mb 55f
2:12 5 6 mph 1017mb 56f
2:06 5 6 mph 1017mb 56f
2:00 5 6 mph 1017mb 56f
1:54 3 5 mph 1017mb 56f
1:48 3 6 mph 1017.1mb 56f
1:42 5 6 mph 1017.1mb 55f
1:36 5 6 mph 1017.1mb 55f
1:30 3 5 mph 1017.1mb 56f
1:24 3
mph
1017.1mb 56f
1:18 3 5 mph 1017.1mb 56f
1:12 3 5 mph 1017.1mb 56f
1:06 3 5 mph 1017.1mb 56f
1:00 3
mph
1017mb 56f
12:54 3 5 mph 1017mb 57f
12:48 3 5 mph 1016.9mb 57f
12:42 3 5 mph 1017mb 57f
12:36 3
mph
1017mb 57f
12:30 3 5 mph 1016.9mb 57f
12:24 2
mph
1016.9mb 57f
12:18  -  2 mph 1016.9mb 57f
12:12  -  1 mph 1016.9mb 56f
12:06  -  1 mph 1017mb 56f
12:00 1 2 mph 1016.9mb 56f
lun 07/21 11:54 1 2 mph 1016.9mb 56f
11:48 2
mph
1016.9mb 56f
11:42 2
mph
1016.8mb 56f
11:36  -  1 mph 1016.8mb 56f
11:30 2 3 mph 1016.8mb 57f
11:24 2 3 mph 1016.8mb 57f
11:18 2
mph
1016.7mb 57f
11:12 2 3 mph 1016.7mb 57f
11:06 3 6 mph 1016.8mb 57f
11:00 5 6 mph 1016.7mb 57f
10:54 5 6 mph 1016.7mb 57f
10:48 3 5 mph 1016.8mb 58f
10:42 2 5 mph 1016.9mb 58f
10:36 2 5 mph 1016.9mb 58f
10:30 1 2 mph 1016.9mb 58f
10:24 1 2 mph 1016.9mb 58f
10:18 1 3 mph 1016.9mb 58f
10:12 2 3 mph 1016.9mb 58f
10:06 1 3 mph 1016.9mb 57f
10:00 2 3 mph 1016.9mb 57f
9:54 3 5 mph 1016.9mb 58f
9:48 3 7 mph 1016.8mb 58f
9:42 6 7 mph 1016.7mb 58f
9:36 5 6 mph 1016.7mb 58f
9:30 5 7 mph 1016.6mb 58f
9:24 6 8 mph 1016.6mb 59f
9:18 5 6 mph 1016.6mb 59f
9:12 6 8 mph 1016.5mb 59f
9:06 7 8 mph 1016.4mb 59f
9:00 7 9 mph 1016.3mb 60f
8:54 8 9 mph 1016.3mb 60f
8:48 10 11 mph 1016.2mb 60f
8:42 9 13 mph 1016.2mb 60f
8:36 9 13 mph 1016.2mb 60f
8:30 10 13 mph 1016.2mb 61f
8:24 9 11 mph 1016.2mb 61f
8:18 9 11 mph 1016.2mb 61f
8:12 9 11 mph 1016.1mb 62f
8:06 9 10 mph 1016.2mb 62f